TUU weather

Public forecast

Using degrees Celsius for public forecast. Weather courtesy of forecast.io.

Current aviation weather report (METAR) for Tabuk Airport

Retrieved 2020/08/14 08:00 UTC (20 minutes ago):

OETB 140800Z 33014KT CAVOK 34/06 Q1008 NOSIG

Aviation forecast (TAF) for Tabuk Airport

Forecast is more than 6 hours old.

Retrieved 2020-08-14 00:03 UTC (8 hours ago):

TAF TAF OETB 132300Z 1400/1506 VRB03KT CAVOK BECMG 1408/1410 28014KT